createdAt,value
2023-05-14T00:00:00.916Z,52.63
2023-05-14T00:02:30.262Z,53.02
2023-05-14T00:04:58.174Z,53.41
2023-05-14T00:07:30.713Z,52.90
2023-05-14T00:09:58.972Z,53.19
2023-05-14T00:12:26.810Z,52.31
2023-05-14T00:14:54.618Z,53.61
2023-05-14T00:17:22.400Z,53.05
2023-05-14T00:19:51.449Z,53.32
2023-05-14T00:22:19.259Z,53.50
2023-05-14T00:24:47.016Z,53.35
2023-05-14T00:27:14.841Z,53.84
2023-05-14T00:29:42.523Z,53.95
2023-05-14T00:32:10.304Z,54.48
2023-05-14T00:34:38.068Z,53.73
2023-05-14T00:37:07.307Z,54.28
2023-05-14T00:39:35.245Z,54.44
2023-05-14T00:42:03.208Z,54.67
2023-05-14T00:44:31.028Z,54.62
2023-05-14T00:47:00.028Z,54.34
2023-05-14T00:49:29.265Z,54.23
2023-05-14T00:51:59.056Z,54.30
2023-05-14T00:54:29.955Z,54.23
2023-05-14T00:56:58.674Z,54.12
2023-05-14T00:59:26.912Z,54.51
2023-05-14T01:01:55.555Z,54.45
2023-05-14T01:04:23.529Z,54.24
2023-05-14T01:06:58.875Z,54.42
2023-05-14T01:09:33.721Z,54.70
2023-05-14T01:12:08.770Z,54.43
2023-05-14T01:14:44.166Z,54.71
2023-05-14T01:17:13.259Z,54.52
2023-05-14T01:19:44.435Z,54.77
2023-05-14T01:22:14.477Z,54.38
2023-05-14T01:24:42.221Z,54.19
2023-05-14T01:27:17.691Z,54.35
2023-05-14T01:29:51.166Z,54.45
2023-05-14T01:32:23.163Z,54.27
2023-05-14T01:34:53.157Z,53.92
2023-05-14T01:37:23.702Z,54.37
2023-05-14T01:39:52.934Z,54.30
2023-05-14T01:42:21.080Z,53.80
2023-05-14T01:44:48.864Z,53.81
2023-05-14T01:47:19.383Z,55.04
2023-05-14T01:49:47.154Z,54.18
2023-05-14T01:52:14.919Z,54.17
2023-05-14T01:54:44.020Z,54.44
2023-05-14T01:57:11.785Z,54.50
2023-05-14T01:59:39.524Z,54.49
2023-05-14T02:02:07.416Z,55.33
2023-05-14T02:04:36.353Z,54.88
2023-05-14T02:07:04.910Z,55.23
2023-05-14T02:09:32.627Z,55.61
2023-05-14T02:12:01.762Z,55.57
2023-05-14T02:14:29.600Z,55.37
2023-05-14T02:16:57.726Z,55.64
2023-05-14T02:19:25.599Z,55.67
2023-05-14T02:21:53.420Z,55.83
2023-05-14T02:24:21.415Z,55.81
2023-05-14T02:26:49.217Z,56.06
2023-05-14T02:29:18.317Z,55.93
2023-05-14T02:31:46.242Z,56.31
2023-05-14T02:34:14.131Z,55.88
2023-05-14T02:36:42.200Z,56.47
2023-05-14T02:39:10.043Z,55.95
2023-05-14T02:41:37.867Z,56.25
2023-05-14T02:44:06.579Z,56.00
2023-05-14T02:46:36.242Z,56.27
2023-05-14T02:49:04.277Z,56.10
2023-05-14T02:51:32.337Z,56.21
2023-05-14T02:54:00.189Z,55.96
2023-05-14T02:56:27.915Z,56.32
2023-05-14T02:58:55.744Z,57.02
2023-05-14T03:01:24.202Z,56.76
2023-05-14T03:03:53.725Z,57.08
2023-05-14T03:06:21.641Z,56.63
2023-05-14T03:08:49.419Z,56.66
2023-05-14T03:11:17.167Z,56.54
2023-05-14T03:13:44.920Z,56.67
2023-05-14T03:16:12.631Z,56.68
2023-05-14T03:18:40.789Z,56.54
2023-05-14T03:21:11.656Z,56.75
2023-05-14T03:23:39.578Z,56.46
2023-05-14T03:26:07.434Z,56.35
2023-05-14T03:28:35.352Z,56.03
2023-05-14T03:31:03.276Z,56.33
2023-05-14T03:33:31.453Z,55.82
2023-05-14T03:35:59.251Z,55.66
2023-05-14T03:38:28.547Z,56.43
2023-05-14T03:40:56.562Z,55.83
2023-05-14T03:43:24.438Z,56.02
2023-05-14T03:45:53.121Z,56.14
2023-05-14T03:48:21.603Z,55.81
2023-05-14T03:50:49.632Z,55.93
2023-05-14T03:53:17.849Z,56.22
2023-05-14T03:55:48.501Z,56.44
2023-05-14T03:58:17.643Z,56.06
2023-05-14T04:00:45.608Z,56.21
2023-05-14T04:03:13.373Z,56.31
2023-05-14T04:05:41.331Z,57.08
2023-05-14T04:08:09.141Z,56.77
2023-05-14T04:10:36.881Z,57.34
2023-05-14T04:13:05.963Z,56.92
2023-05-14T04:15:39.208Z,57.37
2023-05-14T04:18:07.016Z,57.20
2023-05-14T04:20:34.905Z,57.37
2023-05-14T04:23:02.831Z,57.55
2023-05-14T04:25:30.763Z,57.81
2023-05-14T04:27:58.629Z,57.82
2023-05-14T04:30:27.831Z,57.91
2023-05-14T04:32:55.718Z,58.13
2023-05-14T04:35:25.026Z,57.76
2023-05-14T04:37:53.212Z,57.85
2023-05-14T04:40:22.855Z,57.80
2023-05-14T04:42:50.916Z,58.33
2023-05-14T04:45:18.807Z,58.54
2023-05-14T04:47:47.950Z,58.84
2023-05-14T04:50:16.483Z,58.72
2023-05-14T04:52:44.296Z,58.60
2023-05-14T04:55:12.060Z,59.00
2023-05-14T04:57:39.876Z,58.63
2023-05-14T05:00:10.002Z,58.62
2023-05-14T05:02:37.881Z,58.78
2023-05-14T05:05:07.558Z,59.35
2023-05-14T05:07:35.549Z,59.44
2023-05-14T05:10:03.420Z,58.86
2023-05-14T05:12:31.133Z,59.11
2023-05-14T05:14:58.955Z,58.54
2023-05-14T05:17:26.808Z,58.86
2023-05-14T05:19:54.500Z,58.80
2023-05-14T05:22:24.319Z,59.10
2023-05-14T05:24:52.105Z,59.42
2023-05-14T05:27:21.035Z,59.00
2023-05-14T05:29:48.769Z,59.05
2023-05-14T05:32:16.644Z,59.19
2023-05-14T05:34:44.627Z,59.46
2023-05-14T05:37:14.131Z,59.86
2023-05-14T05:39:43.264Z,60.45
2023-05-14T05:42:11.242Z,60.57
2023-05-14T05:44:39.038Z,60.98
2023-05-14T05:47:07.202Z,61.10
2023-05-14T05:49:36.869Z,61.17
2023-05-14T05:52:05.117Z,61.27
2023-05-14T05:54:33.340Z,60.95
2023-05-14T05:57:02.561Z,61.47
2023-05-14T05:59:30.611Z,60.88
2023-05-14T06:01:58.452Z,60.84
2023-05-14T06:04:26.280Z,60.96
2023-05-14T06:06:54.025Z,61.04
2023-05-14T06:09:21.807Z,60.99
2023-05-14T06:11:49.702Z,61.09
2023-05-14T06:14:18.905Z,61.07
2023-05-14T06:16:46.862Z,60.72
2023-05-14T06:19:14.824Z,61.06
2023-05-14T06:21:42.705Z,60.84
2023-05-14T06:24:10.893Z,59.99
2023-05-14T06:26:38.646Z,59.90
2023-05-14T06:29:06.595Z,59.46
2023-05-14T06:31:35.802Z,58.90
2023-05-14T06:34:03.680Z,58.69
2023-05-14T06:36:31.403Z,59.02
2023-05-14T06:38:59.126Z,58.32
2023-05-14T06:41:27.224Z,58.19
2023-05-14T06:43:55.521Z,57.85
2023-05-14T06:46:23.330Z,57.63
2023-05-14T06:48:52.455Z,57.28
2023-05-14T06:51:20.228Z,57.64
2023-05-14T06:53:48.856Z,57.70
2023-05-14T06:56:16.697Z,57.96
2023-05-14T06:58:44.380Z,58.25
2023-05-14T07:01:12.098Z,58.29
2023-05-14T07:03:39.918Z,58.40
2023-05-14T07:06:09.940Z,58.51
2023-05-14T07:08:38.967Z,58.56
2023-05-14T07:11:06.757Z,57.94
2023-05-14T07:13:34.659Z,58.48
2023-05-14T07:16:02.469Z,58.73
2023-05-14T07:18:31.275Z,58.06
2023-05-14T07:20:59.143Z,58.35
2023-05-14T07:23:28.440Z,58.09
2023-05-14T07:25:56.521Z,58.03
2023-05-14T07:28:24.372Z,58.16
2023-05-14T07:30:52.407Z,57.56
2023-05-14T07:33:20.337Z,57.57
2023-05-14T07:35:48.127Z,57.76
2023-05-14T07:38:16.397Z,59.30
2023-05-14T07:40:45.536Z,58.96
2023-05-14T07:43:13.333Z,59.99
2023-05-14T07:45:41.332Z,60.22
2023-05-14T07:48:09.312Z,60.62
2023-05-14T07:50:38.434Z,60.44
2023-05-14T07:53:06.215Z,60.52
2023-05-14T07:55:34.033Z,60.21
2023-05-14T07:58:03.193Z,60.81
2023-05-14T08:00:30.940Z,60.51
2023-05-14T08:02:58.852Z,60.97
2023-05-14T08:05:26.758Z,60.80
2023-05-14T08:07:54.591Z,61.28
2023-05-14T08:10:22.932Z,61.47
2023-05-14T08:12:50.914Z,60.99
2023-05-14T08:15:20.160Z,61.22
2023-05-14T08:17:48.288Z,61.47
2023-05-14T08:20:16.694Z,60.13
2023-05-14T08:22:44.518Z,60.12
2023-05-14T08:25:12.530Z,60.32
2023-05-14T08:27:40.343Z,59.55
2023-05-14T08:30:09.146Z,59.66
2023-05-14T08:32:39.413Z,60.31
2023-05-14T08:35:08.296Z,59.92
2023-05-14T08:37:36.063Z,59.40
2023-05-14T08:40:04.668Z,59.42
2023-05-14T08:42:33.345Z,58.53
2023-05-14T08:45:03.637Z,58.56
2023-05-14T08:47:32.431Z,58.32
2023-05-14T08:50:05.394Z,58.08
2023-05-14T08:52:35.024Z,58.47
2023-05-14T08:55:05.227Z,58.14
2023-05-14T08:57:34.218Z,58.33
2023-05-14T09:00:08.163Z,58.80
2023-05-14T09:02:37.718Z,58.42
2023-05-14T09:05:09.233Z,57.70
2023-05-14T09:07:37.239Z,57.35
2023-05-14T09:10:05.784Z,56.58
2023-05-14T09:12:33.936Z,56.00
2023-05-14T09:15:01.852Z,55.16
2023-05-14T09:17:29.838Z,55.09
2023-05-14T09:19:58.026Z,55.22
2023-05-14T09:22:32.351Z,55.17
2023-05-14T09:25:05.549Z,55.49
2023-05-14T09:27:34.271Z,54.73
2023-05-14T09:30:09.868Z,54.42
2023-05-14T09:32:39.080Z,54.67
2023-05-14T09:35:18.140Z,54.80
2023-05-14T09:37:48.645Z,55.48
2023-05-14T09:40:18.061Z,55.31
2023-05-14T09:42:46.505Z,55.89
2023-05-14T09:45:14.480Z,55.57
2023-05-14T09:47:42.531Z,55.58
2023-05-14T09:50:10.871Z,55.43
2023-05-14T09:52:39.531Z,55.87
2023-05-14T09:55:09.787Z,55.20
2023-05-14T09:57:37.755Z,55.79
2023-05-14T10:00:06.801Z,55.55
2023-05-14T10:02:38.853Z,55.85
2023-05-14T10:05:09.394Z,56.31
2023-05-14T10:07:42.096Z,55.35
2023-05-14T10:10:16.817Z,55.30
2023-05-14T10:12:50.602Z,55.59
2023-05-14T10:15:23.502Z,55.43
2023-05-14T10:17:57.365Z,55.52
2023-05-14T10:20:27.924Z,55.64
2023-05-14T10:22:56.603Z,55.75
2023-05-14T10:25:26.426Z,55.97
2023-05-14T10:27:55.072Z,55.45
2023-05-14T10:30:24.093Z,54.67
2023-05-14T10:33:07.910Z,54.92
2023-05-14T10:35:57.205Z,54.67
2023-05-14T10:38:28.108Z,54.96
2023-05-14T10:41:00.447Z,55.13
2023-05-14T10:43:30.793Z,55.87
2023-05-14T10:45:59.259Z,56.21
2023-05-14T10:48:27.560Z,55.98
2023-05-14T10:50:57.771Z,56.03
2023-05-14T10:53:35.663Z,55.21
2023-05-14T10:56:10.054Z,52.85
2023-05-14T10:58:39.159Z,51.15
2023-05-14T11:01:08.204Z,50.82
2023-05-14T11:03:42.675Z,50.02
2023-05-14T11:06:11.698Z,46.35
2023-05-14T11:08:40.487Z,46.71
2023-05-14T11:11:10.777Z,46.73
2023-05-14T11:13:39.424Z,45.40
2023-05-14T11:18:40.724Z,46.21
2023-05-14T11:21:08.660Z,45.96
2023-05-14T11:23:36.423Z,45.79
2023-05-14T11:26:04.437Z,45.32
2023-05-14T11:28:33.639Z,44.95
2023-05-14T11:31:01.514Z,42.85
2023-05-14T11:33:29.377Z,43.03
2023-05-14T11:35:57.129Z,44.00
2023-05-14T11:38:25.021Z,43.55
2023-05-14T11:40:54.121Z,43.82
2023-05-14T11:43:23.786Z,43.68
2023-05-14T11:45:54.925Z,42.52
2023-05-14T11:48:24.248Z,42.87
2023-05-14T11:50:53.652Z,43.74
2023-05-14T11:53:25.943Z,44.43
2023-05-14T11:55:55.296Z,44.86
2023-05-14T11:58:23.178Z,44.61
2023-05-14T12:00:53.351Z,44.56
2023-05-14T12:03:25.425Z,42.70
2023-05-14T12:05:58.184Z,42.55
2023-05-14T12:08:28.767Z,40.76
2023-05-14T12:10:57.084Z,39.45
2023-05-14T12:13:27.649Z,38.11
2023-05-14T12:15:58.321Z,38.60
2023-05-14T12:18:28.202Z,38.00
2023-05-14T12:20:56.739Z,34.48
2023-05-14T12:23:27.688Z,35.87
2023-05-14T12:25:55.619Z,35.60
2023-05-14T12:28:24.613Z,36.93
2023-05-14T12:30:59.057Z,38.03
2023-05-14T12:33:28.541Z,38.20
2023-05-14T12:36:09.953Z,35.66
2023-05-14T12:38:41.906Z,35.25
2023-05-14T12:41:09.689Z,34.79
2023-05-14T12:43:37.554Z,34.39
2023-05-14T12:46:06.852Z,34.66
2023-05-14T12:48:34.715Z,34.52
2023-05-14T12:51:02.573Z,34.16
2023-05-14T12:53:30.309Z,34.72
2023-05-14T12:55:58.059Z,36.31
2023-05-14T12:58:25.986Z,35.91
2023-05-14T13:00:53.801Z,35.12
2023-05-14T13:03:23.298Z,33.01
2023-05-14T13:05:51.995Z,33.23
2023-05-14T13:08:21.552Z,34.33
2023-05-14T13:10:49.534Z,32.76
2023-05-14T13:13:17.369Z,33.31
2023-05-14T13:15:46.741Z,32.74
2023-05-14T13:18:14.769Z,38.61
2023-05-14T13:20:43.892Z,41.54
2023-05-14T13:23:11.659Z,43.24
2023-05-14T13:25:39.865Z,44.87
2023-05-14T13:28:10.650Z,45.31
2023-05-14T13:30:39.322Z,44.58
2023-05-14T13:33:07.542Z,43.68
2023-05-14T13:35:35.598Z,43.72
2023-05-14T13:38:04.800Z,47.25
2023-05-14T13:40:32.617Z,48.05
2023-05-14T13:43:00.450Z,48.71
2023-05-14T13:45:28.329Z,49.35
2023-05-14T13:47:56.638Z,50.05
2023-05-14T13:50:24.494Z,50.67
2023-05-14T13:52:52.224Z,50.91
2023-05-14T13:55:21.412Z,50.94
2023-05-14T13:57:49.340Z,51.10
2023-05-14T14:00:17.852Z,50.82
2023-05-14T14:02:45.716Z,51.48
2023-05-14T14:05:13.488Z,51.65
2023-05-14T14:07:41.883Z,50.99
2023-05-14T14:10:10.944Z,50.78
2023-05-14T14:12:40.618Z,51.03
2023-05-14T14:15:09.421Z,49.63
2023-05-14T14:17:37.902Z,50.69
2023-05-14T14:20:08.130Z,51.20
2023-05-14T14:22:36.091Z,51.29
2023-05-14T14:25:04.113Z,49.20
2023-05-14T14:27:33.979Z,49.81
2023-05-14T14:30:05.147Z,50.09
2023-05-14T14:36:24.551Z,50.55
2023-05-14T14:39:31.837Z,50.67
2023-05-14T14:42:09.217Z,51.10
2023-05-14T14:45:21.325Z,50.27
2023-05-14T14:48:25.934Z,51.85
2023-05-14T14:50:54.219Z,52.15
2023-05-14T14:53:22.275Z,51.64
2023-05-14T14:55:50.190Z,51.60
2023-05-14T14:58:19.415Z,52.01
2023-05-14T15:00:47.675Z,51.31
2023-05-14T15:03:16.465Z,51.36
2023-05-14T15:05:46.047Z,51.69
2023-05-14T15:08:13.863Z,52.37
2023-05-14T15:10:41.969Z,52.14
2023-05-14T15:13:11.153Z,52.48
2023-05-14T15:15:39.364Z,52.20
2023-05-14T15:18:07.362Z,52.39
2023-05-14T15:20:35.232Z,52.41
2023-05-14T15:23:04.497Z,51.98
2023-05-14T15:25:32.305Z,52.05
2023-05-14T15:28:00.083Z,51.95
2023-05-14T15:30:27.995Z,52.07
2023-05-14T15:32:56.786Z,52.84
2023-05-14T15:35:25.180Z,52.46
2023-05-14T15:37:56.927Z,52.72
2023-05-14T15:40:27.926Z,53.17
2023-05-14T15:42:55.888Z,53.41
2023-05-14T15:45:23.842Z,53.42
2023-05-14T15:47:51.640Z,53.28
2023-05-14T15:50:20.766Z,53.37
2023-05-14T15:52:48.891Z,53.48
2023-05-14T15:55:20.157Z,52.47
2023-05-14T15:57:49.302Z,53.02
2023-05-14T16:00:18.151Z,52.16
2023-05-14T16:02:46.157Z,52.10
2023-05-14T16:05:14.870Z,52.24
2023-05-14T16:07:43.129Z,52.04
2023-05-14T16:10:11.558Z,51.88
2023-05-14T16:12:40.077Z,51.04
2023-05-14T16:15:10.496Z,50.83
2023-05-14T16:17:38.677Z,49.24
2023-05-14T16:20:07.417Z,49.66
2023-05-14T16:22:36.227Z,50.20
2023-05-14T16:25:06.112Z,49.73
2023-05-14T16:27:33.948Z,49.29
2023-05-14T16:30:01.801Z,48.80
2023-05-14T16:32:31.104Z,49.54
2023-05-14T16:34:58.849Z,48.13
2023-05-14T16:37:26.661Z,47.74
2023-05-14T16:39:54.852Z,47.22
2023-05-14T16:42:22.614Z,46.94
2023-05-14T16:44:50.498Z,47.67
2023-05-14T16:47:18.472Z,46.69
2023-05-14T16:49:47.602Z,48.08
2023-05-14T16:52:15.503Z,49.46
2023-05-14T16:54:43.316Z,49.47
2023-05-14T16:57:11.172Z,50.33
2023-05-14T16:59:39.060Z,49.98
2023-05-14T17:02:07.155Z,50.44
2023-05-14T17:07:07.745Z,50.65
2023-05-14T17:09:35.573Z,51.25
2023-05-14T17:12:04.253Z,52.46
2023-05-14T17:14:32.041Z,52.35
2023-05-14T17:16:59.818Z,51.64
2023-05-14T17:19:27.569Z,52.23
2023-05-14T17:21:55.536Z,52.21
2023-05-14T17:24:24.733Z,52.59
2023-05-14T17:26:52.458Z,53.48
2023-05-14T17:29:21.270Z,53.75
2023-05-14T17:31:49.420Z,53.87
2023-05-14T17:34:17.670Z,53.42
2023-05-14T17:36:45.449Z,53.91
2023-05-14T17:39:13.296Z,53.65
2023-05-14T17:41:42.748Z,53.98
2023-05-14T17:44:12.847Z,54.00
2023-05-14T17:46:41.590Z,54.75
2023-05-14T17:49:09.580Z,54.52
2023-05-14T17:51:37.530Z,53.39
2023-05-14T17:54:05.512Z,54.18
2023-05-14T17:56:33.530Z,53.64
2023-05-14T17:59:02.848Z,54.12
2023-05-14T18:01:30.813Z,54.01
2023-05-14T18:03:58.692Z,54.03
2023-05-14T18:06:26.590Z,53.28
2023-05-14T18:08:54.406Z,53.73
2023-05-14T18:11:22.144Z,53.85
2023-05-14T18:13:49.994Z,54.92
2023-05-14T18:16:19.979Z,54.79
2023-05-14T18:18:47.991Z,55.25
2023-05-14T18:21:15.996Z,54.82
2023-05-14T18:23:43.796Z,54.82
2023-05-14T18:26:11.947Z,55.26
2023-05-14T18:28:39.976Z,54.97
2023-05-14T18:31:07.856Z,54.85
2023-05-14T18:33:37.019Z,54.91
2023-05-14T18:36:05.617Z,55.37
2023-05-14T18:38:33.523Z,55.30
2023-05-14T18:41:01.449Z,55.84
2023-05-14T18:43:29.250Z,54.93
2023-05-14T18:45:57.088Z,55.01
2023-05-14T18:48:25.351Z,54.29
2023-05-14T18:50:54.678Z,54.64
2023-05-14T18:53:22.593Z,55.02
2023-05-14T18:55:50.846Z,55.22
2023-05-14T18:58:18.731Z,55.30
2023-05-14T19:00:47.602Z,55.32
2023-05-14T19:03:15.749Z,54.69
2023-05-14T19:05:44.113Z,54.00
2023-05-14T19:08:13.517Z,54.05
2023-05-14T19:10:41.926Z,53.78
2023-05-14T19:13:09.991Z,54.09
2023-05-14T19:15:39.281Z,55.23
2023-05-14T19:18:07.953Z,55.01
2023-05-14T19:20:36.784Z,54.76
2023-05-14T19:23:04.841Z,54.89
2023-05-14T19:25:34.914Z,54.67
2023-05-14T19:28:03.720Z,54.79
2023-05-14T19:30:32.161Z,55.22
2023-05-14T19:33:00.082Z,55.02
2023-05-14T19:35:28.220Z,55.35
2023-05-14T19:37:56.426Z,55.93
2023-05-14T19:40:24.248Z,55.49
2023-05-14T19:42:53.431Z,55.61
2023-05-14T19:45:23.460Z,55.19
2023-05-14T19:47:52.372Z,55.25
2023-05-14T19:50:20.559Z,56.09
2023-05-14T19:52:48.891Z,55.88
2023-05-14T19:55:17.584Z,55.10
2023-05-14T19:57:46.469Z,55.44
2023-05-14T20:00:16.894Z,55.54
2023-05-14T20:02:47.842Z,55.00
2023-05-14T20:05:16.824Z,55.23
2023-05-14T20:07:44.821Z,55.00
2023-05-14T20:10:12.787Z,54.96
2023-05-14T20:12:41.093Z,54.56
2023-05-14T20:15:10.207Z,54.45
2023-05-14T20:17:40.113Z,54.29
2023-05-14T20:20:09.877Z,55.10
2023-05-14T20:22:38.243Z,55.38
2023-05-14T20:25:07.003Z,55.41
2023-05-14T20:27:34.885Z,55.00
2023-05-14T20:30:02.837Z,54.93
2023-05-14T20:32:30.618Z,54.38
2023-05-14T20:35:01.873Z,55.34
2023-05-14T20:37:30.924Z,55.31
2023-05-14T20:39:59.090Z,55.37
2023-05-14T20:42:27.711Z,54.98
2023-05-14T20:44:55.748Z,55.54
2023-05-14T20:47:30.386Z,55.51
2023-05-14T20:49:59.949Z,55.12
2023-05-14T20:52:27.970Z,55.63
2023-05-14T20:54:55.818Z,55.42
2023-05-14T20:57:23.582Z,56.00
2023-05-14T20:59:52.234Z,55.58
2023-05-14T21:02:20.071Z,55.96
2023-05-14T21:04:48.070Z,56.41
2023-05-14T21:07:17.428Z,56.32
2023-05-14T21:09:50.679Z,56.27
2023-05-14T21:12:18.760Z,56.41
2023-05-14T21:14:46.629Z,55.98
2023-05-14T21:17:14.449Z,56.11
2023-05-14T21:19:42.222Z,56.30
2023-05-14T21:22:09.956Z,56.36
2023-05-14T21:24:39.201Z,56.61
2023-05-14T21:27:07.165Z,56.40
2023-05-14T21:29:34.943Z,57.06
2023-05-14T21:32:02.930Z,57.16
2023-05-14T21:34:32.023Z,56.66
2023-05-14T21:37:00.014Z,56.18
2023-05-14T21:39:28.026Z,56.07
2023-05-14T21:41:57.267Z,56.04
2023-05-14T21:44:25.269Z,56.11
2023-05-14T21:46:53.028Z,56.70
2023-05-14T21:49:20.904Z,57.38
2023-05-14T21:51:52.819Z,57.31
2023-05-14T21:54:20.931Z,56.64
2023-05-14T21:56:48.911Z,56.68
2023-05-14T21:59:18.162Z,56.48
2023-05-14T22:02:05.701Z,56.01
2023-05-14T22:04:35.247Z,56.01
2023-05-14T22:07:03.380Z,56.10
2023-05-14T22:09:31.346Z,56.26
2023-05-14T22:11:59.232Z,56.69
2023-05-14T22:14:28.464Z,56.51
2023-05-14T22:16:56.739Z,55.71
2023-05-14T22:19:25.751Z,56.39
2023-05-14T22:21:53.565Z,55.87
2023-05-14T22:24:21.658Z,55.68
2023-05-14T22:26:49.433Z,55.87
2023-05-14T22:29:17.185Z,55.75
2023-05-14T22:31:46.317Z,56.46
2023-05-14T22:34:14.249Z,56.12
2023-05-14T22:36:42.005Z,56.29
2023-05-14T22:39:11.410Z,56.37
2023-05-14T22:41:41.179Z,56.52
2023-05-14T22:44:08.980Z,55.86
2023-05-14T22:46:36.903Z,56.86
2023-05-14T22:49:06.023Z,56.57
2023-05-14T22:51:33.773Z,55.90
2023-05-14T22:54:01.590Z,55.76
2023-05-14T22:56:29.519Z,55.66
2023-05-14T22:58:57.553Z,55.77
2023-05-14T23:01:25.397Z,56.25
2023-05-14T23:03:53.200Z,56.29
2023-05-14T23:06:22.326Z,56.51
2023-05-14T23:08:50.075Z,56.36
2023-05-14T23:11:18.127Z,56.49
2023-05-14T23:13:46.151Z,56.75
2023-05-14T23:16:14.215Z,57.31
2023-05-14T23:18:42.286Z,56.85
2023-05-14T23:21:10.172Z,56.68
2023-05-14T23:23:39.286Z,56.80
2023-05-14T23:26:07.321Z,56.63
2023-05-14T23:28:35.033Z,57.12
2023-05-14T23:31:03.062Z,57.33
2023-05-14T23:33:30.923Z,57.52
2023-05-14T23:35:58.980Z,58.07
2023-05-14T23:38:26.730Z,57.85
2023-05-14T23:40:55.849Z,58.14
2023-05-14T23:43:23.667Z,57.85
2023-05-14T23:45:51.500Z,58.01
2023-05-14T23:48:19.302Z,57.52
2023-05-14T23:50:47.081Z,57.83
2023-05-14T23:53:14.844Z,58.23
2023-05-14T23:55:42.698Z,58.55
2023-05-14T23:58:11.952Z,58.97
